createdAt,value
2019-05-15T00:00:52.313Z,0.00
2019-05-15T00:01:52.321Z,0.00
2019-05-15T00:02:52.300Z,0.00
2019-05-15T00:03:52.298Z,0.00
2019-05-15T00:04:52.276Z,0.00
2019-05-15T00:05:52.253Z,0.00
2019-05-15T00:06:52.259Z,0.00
2019-05-15T00:07:52.251Z,0.00
2019-05-15T00:08:52.262Z,0.00
2019-05-15T00:09:52.221Z,0.00
2019-05-15T00:10:52.228Z,0.00
2019-05-15T00:11:52.193Z,0.00
2019-05-15T00:12:52.200Z,0.00
2019-05-15T00:13:52.199Z,0.00
2019-05-15T00:14:52.161Z,0.00
2019-05-15T00:15:52.156Z,0.00
2019-05-15T00:16:52.135Z,0.00
2019-05-15T00:17:52.142Z,0.00
2019-05-15T00:18:52.150Z,0.00
2019-05-15T00:19:52.113Z,0.00
2019-05-15T00:20:52.124Z,0.00
2019-05-15T00:21:52.111Z,0.00
2019-05-15T00:22:52.086Z,0.00
2019-05-15T00:23:52.088Z,0.00
2019-05-15T00:24:52.084Z,0.00
2019-05-15T00:25:52.042Z,0.00
2019-05-15T00:26:52.064Z,0.00
2019-05-15T00:27:52.029Z,0.00
2019-05-15T00:28:52.016Z,0.00
2019-05-15T00:29:52.037Z,0.00
2019-05-15T00:30:51.983Z,0.00
2019-05-15T00:31:51.992Z,0.00
2019-05-15T00:32:51.987Z,0.00
2019-05-15T00:33:51.958Z,0.00
2019-05-15T00:34:51.959Z,0.00
2019-05-15T00:35:51.940Z,0.00
2019-05-15T00:36:51.923Z,0.00
2019-05-15T00:37:51.917Z,0.00
2019-05-15T00:38:51.899Z,0.00
2019-05-15T00:39:51.907Z,0.00
2019-05-15T00:40:51.888Z,0.00
2019-05-15T00:41:54.791Z,0.00
2019-05-15T00:42:51.857Z,0.00
2019-05-15T00:43:51.858Z,0.00
2019-05-15T00:44:51.846Z,0.00
2019-05-15T00:45:51.837Z,0.00
2019-05-15T00:46:51.818Z,0.00
2019-05-15T00:47:51.796Z,0.00
2019-05-15T00:48:51.794Z,0.00
2019-05-15T00:49:51.805Z,0.00
2019-05-15T00:50:51.800Z,0.00
2019-05-15T00:51:51.765Z,0.00
2019-05-15T00:52:51.759Z,0.00
2019-05-15T00:53:51.733Z,0.00
2019-05-15T00:54:51.756Z,0.00
2019-05-15T00:55:51.720Z,0.00
2019-05-15T00:56:51.699Z,0.00
2019-05-15T00:57:51.695Z,0.00
2019-05-15T00:58:51.706Z,0.00
2019-05-15T00:59:51.687Z,0.00
2019-05-15T01:00:51.685Z,0.00
2019-05-15T01:01:51.677Z,0.00
2019-05-15T01:04:00.905Z,0.00
2019-05-15T01:05:01.862Z,0.00
2019-05-15T01:06:01.828Z,0.00
2019-05-15T01:07:01.814Z,0.00
2019-05-15T01:08:01.801Z,0.00
2019-05-15T01:09:01.770Z,0.00
2019-05-15T01:10:01.788Z,0.00
2019-05-15T01:11:01.750Z,0.00
2019-05-15T01:12:01.755Z,0.00
2019-05-15T01:13:01.735Z,0.00
2019-05-15T01:14:01.736Z,0.00
2019-05-15T01:15:01.738Z,0.00
2019-05-15T01:16:01.702Z,0.00
2019-05-15T01:17:01.694Z,0.00
2019-05-15T01:18:01.689Z,0.00
2019-05-15T01:19:01.670Z,0.00
2019-05-15T01:20:01.700Z,0.00
2019-05-15T01:21:01.645Z,0.00
2019-05-15T01:22:01.642Z,0.00
2019-05-15T01:23:01.619Z,0.00
2019-05-15T01:24:01.629Z,0.00
2019-05-15T01:25:01.631Z,0.00
2019-05-15T01:26:01.587Z,0.00
2019-05-15T01:27:01.579Z,0.00
2019-05-15T01:28:01.581Z,0.00
2019-05-15T01:29:01.556Z,0.00
2019-05-15T01:30:01.555Z,0.00
2019-05-15T01:31:01.547Z,0.00
2019-05-15T01:32:01.533Z,0.00
2019-05-15T01:33:01.514Z,0.00
2019-05-15T01:34:01.509Z,0.00
2019-05-15T01:35:01.501Z,0.00
2019-05-15T01:36:01.513Z,0.00
2019-05-15T01:37:01.476Z,0.00
2019-05-15T01:38:01.458Z,0.00
2019-05-15T01:39:01.447Z,0.00
2019-05-15T01:40:01.458Z,0.00
2019-05-15T01:41:01.438Z,0.00
2019-05-15T01:42:01.412Z,0.00
2019-05-15T01:43:01.397Z,0.00
2019-05-15T01:44:01.414Z,0.00
2019-05-15T01:45:01.378Z,0.00
2019-05-15T01:46:01.391Z,0.00
2019-05-15T01:47:01.370Z,0.00
2019-05-15T01:48:01.347Z,0.00
2019-05-15T01:49:01.349Z,0.00
2019-05-15T01:50:01.336Z,0.00
2019-05-15T01:51:01.648Z,0.00
2019-05-15T01:52:01.298Z,0.00
2019-05-15T01:53:01.305Z,0.00
2019-05-15T01:54:01.298Z,0.00
2019-05-15T01:55:01.284Z,0.00
2019-05-15T01:56:01.286Z,0.00
2019-05-15T01:57:01.253Z,0.00
2019-05-15T01:58:01.262Z,0.00
2019-05-15T01:59:01.244Z,0.00
2019-05-15T02:00:01.258Z,0.00
2019-05-15T02:01:01.242Z,0.00
2019-05-15T02:02:01.214Z,0.00
2019-05-15T02:03:01.194Z,0.00
2019-05-15T02:04:01.190Z,0.00
2019-05-15T02:05:01.172Z,0.00
2019-05-15T02:06:01.176Z,0.00
2019-05-15T02:07:01.208Z,0.00
2019-05-15T02:08:01.136Z,0.00
2019-05-15T02:09:01.117Z,0.00
2019-05-15T02:10:01.144Z,0.00
2019-05-15T02:11:01.128Z,0.00
2019-05-15T02:12:01.082Z,0.00
2019-05-15T02:13:01.083Z,0.00
2019-05-15T02:14:01.110Z,0.00
2019-05-15T02:15:01.065Z,0.00
2019-05-15T02:16:01.083Z,0.00
2019-05-15T02:17:01.036Z,0.00
2019-05-15T02:18:01.023Z,0.00
2019-05-15T02:19:01.014Z,0.00
2019-05-15T02:20:01.013Z,0.00
2019-05-15T02:21:01.008Z,0.00
2019-05-15T02:22:00.996Z,0.00
2019-05-15T02:23:00.983Z,0.00
2019-05-15T02:24:00.955Z,0.00
2019-05-15T02:25:00.953Z,0.00
2019-05-15T02:26:00.933Z,0.00
2019-05-15T02:27:00.953Z,0.00
2019-05-15T02:28:00.924Z,0.00
2019-05-15T02:29:00.902Z,0.00
2019-05-15T02:30:15.966Z,0.00
2019-05-15T02:31:00.897Z,0.00
2019-05-15T02:32:00.895Z,0.00
2019-05-15T02:33:00.868Z,0.00
2019-05-15T02:34:00.854Z,0.00
2019-05-15T02:35:00.859Z,0.00
2019-05-15T02:36:00.839Z,0.00
2019-05-15T02:37:00.875Z,0.00
2019-05-15T02:38:00.822Z,0.00
2019-05-15T02:39:00.797Z,0.00
2019-05-15T02:40:00.800Z,0.00
2019-05-15T02:41:00.779Z,0.00
2019-05-15T02:42:00.789Z,0.00
2019-05-15T02:43:00.760Z,0.00
2019-05-15T02:44:00.749Z,0.00
2019-05-15T02:45:00.735Z,0.00
2019-05-15T02:46:00.916Z,0.00
2019-05-15T02:47:00.728Z,0.00
2019-05-15T02:48:00.715Z,0.00
2019-05-15T02:49:00.691Z,0.00
2019-05-15T02:50:00.689Z,0.00
2019-05-15T02:51:00.670Z,0.00
2019-05-15T02:52:00.679Z,0.00
2019-05-15T02:53:00.855Z,0.00
2019-05-15T02:54:00.648Z,0.00
2019-05-15T02:55:00.648Z,0.00
2019-05-15T02:56:00.622Z,4.00
2019-05-15T02:57:00.635Z,4.00
2019-05-15T02:58:00.605Z,0.00
2019-05-15T02:59:00.585Z,0.00
2019-05-15T03:00:00.574Z,4.00
2019-05-15T03:01:00.567Z,4.00
2019-05-15T03:02:00.585Z,4.00
2019-05-15T03:03:00.546Z,8.00
2019-05-15T03:05:09.822Z,4.00
2019-05-15T03:06:10.738Z,4.00
2019-05-15T03:07:10.716Z,8.00
2019-05-15T03:08:10.725Z,8.00
2019-05-15T03:09:10.690Z,12.00
2019-05-15T03:10:10.679Z,16.00
2019-05-15T03:11:10.664Z,16.00
2019-05-15T03:12:10.662Z,16.00
2019-05-15T03:13:10.641Z,20.00
2019-05-15T03:14:10.639Z,24.00
2019-05-15T03:15:10.620Z,24.00
2019-05-15T03:16:10.612Z,32.00
2019-05-15T03:17:10.621Z,36.00
2019-05-15T03:18:10.609Z,40.00
2019-05-15T03:19:10.573Z,48.00
2019-05-15T03:20:11.248Z,52.00
2019-05-15T03:21:10.551Z,56.00
2019-05-15T03:22:10.580Z,68.00
2019-05-15T03:23:10.544Z,76.00
2019-05-15T03:24:10.529Z,80.00
2019-05-15T03:25:11.168Z,92.00
2019-05-15T03:26:10.499Z,100.00
2019-05-15T03:27:10.510Z,112.00
2019-05-15T03:28:11.135Z,124.00
2019-05-15T03:29:10.488Z,136.00
2019-05-15T03:30:14.123Z,152.00
2019-05-15T03:31:32.684Z,168.00
2019-05-15T03:32:25.118Z,184.00
2019-05-15T03:33:18.951Z,200.00
2019-05-15T03:34:20.695Z,216.00
2019-05-15T03:35:14.434Z,236.00
2019-05-15T03:36:13.253Z,256.00
2019-05-15T03:37:12.080Z,276.00
2019-05-15T03:38:10.499Z,300.00
2019-05-15T03:39:10.366Z,324.00
2019-05-15T03:40:10.942Z,348.00
2019-05-15T03:41:10.751Z,372.00
2019-05-15T03:42:10.327Z,400.00
2019-05-15T03:43:10.354Z,428.00
2019-05-15T03:44:10.309Z,452.00
2019-05-15T03:45:10.667Z,480.00
2019-05-15T03:46:10.288Z,508.00
2019-05-15T03:47:10.276Z,540.00
2019-05-15T03:48:10.285Z,568.00
2019-05-15T03:49:10.272Z,600.00
2019-05-15T03:50:10.293Z,628.00
2019-05-15T03:51:10.230Z,660.00
2019-05-15T03:52:10.254Z,692.00
2019-05-15T03:53:10.811Z,724.00
2019-05-15T03:54:10.223Z,756.00
2019-05-15T03:55:11.245Z,788.00
2019-05-15T03:56:10.177Z,820.00
2019-05-15T03:57:10.189Z,852.00
2019-05-15T03:58:10.529Z,888.00
2019-05-15T03:59:10.170Z,920.00
2019-05-15T04:00:10.334Z,956.00
2019-05-15T04:01:28.559Z,988.00
2019-05-15T04:02:10.131Z,1020.00
2019-05-15T04:03:11.174Z,1056.00
2019-05-15T04:04:10.116Z,1088.00
2019-05-15T04:05:11.921Z,1120.00
2019-05-15T04:06:10.445Z,1152.00
2019-05-15T04:07:10.068Z,1188.00
2019-05-15T04:08:11.262Z,1220.00
2019-05-15T04:09:10.043Z,1256.00
2019-05-15T04:10:10.462Z,1284.00
2019-05-15T04:11:10.014Z,1320.00
2019-05-15T04:12:10.024Z,1348.00
2019-05-15T04:13:10.146Z,1376.00
2019-05-15T04:14:10.355Z,1412.00
2019-05-15T04:15:10.575Z,1444.00
2019-05-15T04:16:10.488Z,1480.00
2019-05-15T04:17:09.957Z,1508.00
2019-05-15T04:18:10.046Z,1536.00
2019-05-15T04:19:10.100Z,1568.00
2019-05-15T04:20:10.327Z,1596.00
2019-05-15T04:21:09.923Z,1624.00
2019-05-15T04:22:09.906Z,1656.00
2019-05-15T04:23:10.582Z,1684.00
2019-05-15T04:24:09.890Z,1704.00
2019-05-15T04:25:10.311Z,1728.00
2019-05-15T04:26:09.858Z,1760.00
2019-05-15T04:27:10.910Z,1788.00
2019-05-15T04:28:10.147Z,1816.00
2019-05-15T04:29:09.972Z,1848.00
2019-05-15T04:30:10.911Z,1876.00
2019-05-15T04:31:09.803Z,1896.00
2019-05-15T04:32:10.870Z,1920.00
2019-05-15T04:33:10.126Z,1948.00
2019-05-15T04:34:09.811Z,1976.00
2019-05-15T04:35:10.104Z,2012.00
2019-05-15T04:36:10.151Z,2036.00
2019-05-15T04:37:09.737Z,2052.00
2019-05-15T04:38:09.935Z,2088.00
2019-05-15T04:39:10.090Z,2104.00
2019-05-15T04:40:10.037Z,2136.00
2019-05-15T04:41:10.091Z,2160.00
2019-05-15T04:42:09.692Z,2176.00
2019-05-15T04:43:10.785Z,2192.00
2019-05-15T04:44:10.479Z,2220.00
2019-05-15T04:45:10.488Z,2256.00
2019-05-15T04:46:10.201Z,2276.00
2019-05-15T04:47:10.017Z,2300.00
2019-05-15T04:48:10.462Z,2324.00
2019-05-15T04:49:09.649Z,2352.00
2019-05-15T04:50:09.729Z,2376.00
2019-05-15T04:51:10.077Z,2536.00
2019-05-15T04:52:10.430Z,2556.00
2019-05-15T04:53:10.943Z,2616.00
2019-05-15T04:54:09.897Z,3680.00
2019-05-15T04:55:10.499Z,4772.00
2019-05-15T04:56:09.868Z,4216.00
2019-05-15T04:57:09.600Z,3272.00
2019-05-15T04:58:10.228Z,3336.00
2019-05-15T04:59:10.279Z,4456.00
2019-05-15T05:00:10.035Z,4504.00
2019-05-15T05:01:09.802Z,4096.00
2019-05-15T05:02:25.561Z,5208.00
2019-05-15T05:03:09.987Z,6144.00
2019-05-15T05:04:09.642Z,6148.00
2019-05-15T05:06:19.171Z,6144.00
2019-05-15T05:07:19.613Z,6144.00
2019-05-15T05:08:20.366Z,6164.00
2019-05-15T05:09:19.969Z,6176.00
2019-05-15T05:10:19.794Z,6172.00
2019-05-15T05:11:23.661Z,6200.00
2019-05-15T05:12:19.599Z,6200.00
2019-05-15T05:13:20.284Z,6184.00
2019-05-15T05:14:19.551Z,6188.00
2019-05-15T05:15:19.535Z,6212.00
2019-05-15T05:16:19.511Z,6236.00
2019-05-15T05:17:19.739Z,6272.00
2019-05-15T05:18:19.680Z,6340.00
2019-05-15T05:19:19.782Z,6376.00
2019-05-15T05:20:19.493Z,6400.00
2019-05-15T05:21:19.466Z,6408.00
2019-05-15T05:22:19.454Z,6432.00
2019-05-15T05:23:19.647Z,6464.00
2019-05-15T05:24:19.447Z,6500.00
2019-05-15T05:25:21.371Z,6584.00
2019-05-15T05:26:20.384Z,6600.00
2019-05-15T05:27:19.401Z,6568.00
2019-05-15T05:28:19.398Z,6576.00
2019-05-15T05:29:19.395Z,6576.00
2019-05-15T05:30:19.364Z,6576.00
2019-05-15T05:31:19.359Z,6576.00
2019-05-15T05:32:30.867Z,6608.00
2019-05-15T05:33:19.335Z,6628.00
2019-05-15T05:34:19.534Z,6648.00
2019-05-15T05:35:19.311Z,6660.00
2019-05-15T05:36:19.300Z,6672.00
2019-05-15T05:37:19.302Z,6684.00
2019-05-15T05:38:19.645Z,6692.00
2019-05-15T05:39:20.051Z,6708.00
2019-05-15T05:40:19.271Z,6752.00
2019-05-15T05:41:19.240Z,6760.00
2019-05-15T05:42:19.497Z,6804.00
2019-05-15T05:43:19.265Z,6840.00
2019-05-15T05:44:19.258Z,6852.00
2019-05-15T05:45:19.204Z,6888.00
2019-05-15T05:46:19.212Z,6912.00
2019-05-15T05:47:19.213Z,6956.00
2019-05-15T05:48:19.449Z,7000.00
2019-05-15T05:49:19.187Z,7044.00
2019-05-15T05:50:19.171Z,7092.00
2019-05-15T05:51:19.293Z,7124.00
2019-05-15T05:52:19.122Z,7176.00
2019-05-15T05:53:21.327Z,7224.00
2019-05-15T05:54:19.111Z,7268.00
2019-05-15T05:55:19.148Z,7336.00
2019-05-15T05:56:19.148Z,7368.00
2019-05-15T05:57:19.479Z,7408.00
2019-05-15T05:58:19.786Z,7464.00
2019-05-15T05:59:19.054Z,7520.00
2019-05-15T06:00:19.045Z,7560.00
2019-05-15T06:01:19.075Z,7616.00
2019-05-15T06:02:19.051Z,7668.00
2019-05-15T06:03:19.913Z,7708.00
2019-05-15T06:04:18.995Z,7756.00
2019-05-15T06:05:19.336Z,7788.00
2019-05-15T06:06:18.982Z,7816.00
2019-05-15T06:07:18.977Z,7860.00
2019-05-15T06:08:19.878Z,7900.00
2019-05-15T06:09:18.951Z,7948.00
2019-05-15T06:10:18.952Z,7984.00
2019-05-15T06:11:19.076Z,8012.00
2019-05-15T06:12:19.064Z,8056.00
2019-05-15T06:13:18.977Z,8096.00
2019-05-15T06:14:18.889Z,8132.00
2019-05-15T06:15:18.938Z,8160.00
2019-05-15T06:16:19.110Z,8176.00
2019-05-15T06:17:19.195Z,8212.00
2019-05-15T06:18:19.914Z,8216.00
2019-05-15T06:19:18.841Z,8232.00
2019-05-15T06:20:18.835Z,8256.00
2019-05-15T06:21:18.841Z,8272.00
2019-05-15T06:22:18.965Z,8288.00
2019-05-15T06:23:23.516Z,8308.00
2019-05-15T06:24:18.797Z,8320.00
2019-05-15T06:25:19.785Z,8332.00
2019-05-15T06:26:19.705Z,8352.00
2019-05-15T06:27:19.992Z,8376.00
2019-05-15T06:28:19.881Z,8396.00
2019-05-15T06:29:18.722Z,8400.00
2019-05-15T06:30:26.420Z,8440.00
2019-05-15T06:31:19.101Z,8460.00
2019-05-15T06:32:19.457Z,8468.00
2019-05-15T06:33:19.085Z,8480.00
2019-05-15T06:34:18.665Z,8516.00
2019-05-15T06:35:19.369Z,8536.00
2019-05-15T06:36:18.647Z,8568.00
2019-05-15T06:37:19.723Z,8580.00
2019-05-15T06:38:19.249Z,8604.00
2019-05-15T06:39:18.608Z,8620.00
2019-05-15T06:40:18.638Z,8648.00
2019-05-15T06:41:18.594Z,8644.00
2019-05-15T06:42:18.938Z,8648.00
2019-05-15T06:43:19.424Z,8652.00
2019-05-15T06:44:18.932Z,8624.00
2019-05-15T06:45:18.973Z,8628.00
2019-05-15T06:46:18.878Z,8616.00
2019-05-15T06:47:18.545Z,8628.00
2019-05-15T06:48:19.025Z,8632.00
2019-05-15T06:49:18.516Z,8660.00
2019-05-15T06:50:18.499Z,8680.00
2019-05-15T06:51:18.537Z,8720.00
2019-05-15T06:52:18.549Z,8756.00
2019-05-15T06:53:19.706Z,8812.00
2019-05-15T06:54:19.045Z,8868.00
2019-05-15T06:55:19.500Z,8932.00
2019-05-15T06:56:19.404Z,9000.00
2019-05-15T06:57:18.602Z,9068.00
2019-05-15T06:58:19.675Z,9148.00
2019-05-15T06:59:18.399Z,9200.00
2019-05-15T07:00:19.172Z,9280.00
2019-05-15T07:01:19.040Z,9388.00
2019-05-15T07:02:19.038Z,9476.00
2019-05-15T07:03:25.530Z,9584.00
2019-05-15T07:04:18.367Z,9684.00
2019-05-15T07:05:18.491Z,9728.00
2019-05-15T07:07:28.739Z,9824.00
2019-05-15T07:08:28.910Z,9876.00
2019-05-15T07:09:28.686Z,9968.00
2019-05-15T07:10:28.815Z,10056.00
2019-05-15T07:11:28.475Z,10112.00
2019-05-15T07:12:28.475Z,10152.00
2019-05-15T07:13:29.009Z,10212.00
2019-05-15T07:14:28.859Z,10260.00
2019-05-15T07:15:28.420Z,10356.00
2019-05-15T07:16:28.604Z,10440.00
2019-05-15T07:17:28.826Z,10528.00
2019-05-15T07:18:28.575Z,10576.00
2019-05-15T07:19:28.795Z,10612.00
2019-05-15T07:20:28.619Z,10624.00
2019-05-15T07:21:28.607Z,10712.00
2019-05-15T07:22:28.947Z,10776.00
2019-05-15T07:23:30.798Z,10788.00
2019-05-15T07:24:28.965Z,10804.00
2019-05-15T07:25:29.328Z,10864.00
2019-05-15T07:26:29.061Z,10940.00
2019-05-15T07:27:28.473Z,11020.00
2019-05-15T07:28:28.840Z,11044.00
2019-05-15T07:29:29.197Z,11060.00
2019-05-15T07:30:28.781Z,11084.00
2019-05-15T07:31:28.882Z,11116.00
2019-05-15T07:32:28.636Z,11188.00
2019-05-15T07:33:39.562Z,11256.00
2019-05-15T07:34:28.480Z,11296.00
2019-05-15T07:35:28.805Z,11324.00
2019-05-15T07:36:28.775Z,11408.00
2019-05-15T07:37:28.994Z,11472.00
2019-05-15T07:38:28.344Z,11512.00
2019-05-15T07:39:28.846Z,11536.00
2019-05-15T07:40:29.371Z,11632.00
2019-05-15T07:41:28.561Z,11728.00
2019-05-15T07:42:29.094Z,11784.00
2019-05-15T07:43:28.214Z,11852.00
2019-05-15T07:44:28.367Z,11900.00
2019-05-15T07:45:28.333Z,12008.00
2019-05-15T07:46:28.882Z,12060.00
2019-05-15T07:47:29.212Z,12132.00
2019-05-15T07:48:29.158Z,12240.00
2019-05-15T07:49:28.903Z,12300.00
2019-05-15T07:50:29.965Z,12388.00
2019-05-15T07:51:28.676Z,12428.00
2019-05-15T07:52:28.859Z,12532.00
2019-05-15T07:53:28.905Z,12592.00
2019-05-15T07:54:28.875Z,12656.00
2019-05-15T07:55:29.617Z,12724.00
2019-05-15T07:56:28.896Z,12792.00
2019-05-15T07:57:29.944Z,12872.00
2019-05-15T07:58:28.054Z,12952.00
2019-05-15T07:59:28.118Z,13000.00
2019-05-15T08:00:28.899Z,13120.00
2019-05-15T08:01:29.109Z,13216.00
2019-05-15T08:02:28.829Z,13256.00
2019-05-15T08:03:29.192Z,13376.00
2019-05-15T08:04:30.589Z,13468.00
2019-05-15T08:05:30.755Z,13580.00
2019-05-15T08:06:28.977Z,13608.00
2019-05-15T08:07:28.018Z,13684.00
2019-05-15T08:08:29.038Z,13756.00
2019-05-15T08:09:28.432Z,13720.00
2019-05-15T08:10:28.504Z,13796.00
2019-05-15T08:11:28.554Z,13944.00
2019-05-15T08:12:28.374Z,13984.00
2019-05-15T08:13:28.973Z,13976.00
2019-05-15T08:14:29.125Z,14084.00
2019-05-15T08:15:28.661Z,14188.00
2019-05-15T08:16:28.694Z,14252.00
2019-05-15T08:17:28.957Z,14420.00
2019-05-15T08:18:28.551Z,14540.00
2019-05-15T08:19:28.874Z,14636.00
2019-05-15T08:20:28.929Z,14676.00
2019-05-15T08:21:29.251Z,14768.00
2019-05-15T08:22:28.475Z,14892.00
2019-05-15T08:23:28.846Z,14900.00
2019-05-15T08:24:29.784Z,14968.00
2019-05-15T08:25:34.635Z,15036.00
2019-05-15T08:26:28.318Z,15048.00
2019-05-15T08:27:29.862Z,15124.00
2019-05-15T08:28:28.738Z,15188.00
2019-05-15T08:29:28.824Z,15116.00
2019-05-15T08:30:28.853Z,15240.00
2019-05-15T08:31:28.835Z,15340.00
2019-05-15T08:32:27.999Z,15368.00
2019-05-15T08:33:28.034Z,15348.00
2019-05-15T08:34:28.223Z,15296.00
2019-05-15T08:35:29.154Z,15508.00
2019-05-15T08:36:28.006Z,15480.00
2019-05-15T08:37:29.278Z,15516.00
2019-05-15T08:38:28.844Z,15632.00
2019-05-15T08:39:28.453Z,15588.00
2019-05-15T08:40:28.498Z,15524.00
2019-05-15T08:41:29.569Z,15520.00
2019-05-15T08:42:28.099Z,15380.00
2019-05-15T08:43:29.133Z,15444.00
2019-05-15T08:44:29.330Z,15340.00
2019-05-15T08:45:28.261Z,15392.00
2019-05-15T08:46:27.980Z,15424.00
2019-05-15T08:47:29.708Z,15588.00
2019-05-15T08:48:27.784Z,15624.00
2019-05-15T08:49:28.398Z,15564.00
2019-05-15T08:50:28.737Z,15536.00
2019-05-15T08:51:28.436Z,15636.00
2019-05-15T08:52:28.268Z,15836.00
2019-05-15T08:53:28.483Z,15840.00
2019-05-15T08:54:29.021Z,16128.00
2019-05-15T08:55:28.173Z,16320.00
2019-05-15T08:56:28.875Z,16256.00
2019-05-15T08:57:28.944Z,16224.00
2019-05-15T08:58:29.040Z,16352.00
2019-05-15T08:59:29.502Z,16512.00
2019-05-15T09:00:29.396Z,16384.00
2019-05-15T09:01:28.777Z,16384.00
2019-05-15T09:02:28.753Z,16608.00
2019-05-15T09:03:28.629Z,16448.00
2019-05-15T09:04:33.869Z,16480.00
2019-05-15T09:05:28.265Z,16448.00
2019-05-15T09:06:29.108Z,16448.00
2019-05-15T09:08:39.021Z,16640.00
2019-05-15T09:09:38.680Z,16544.00
2019-05-15T09:10:39.645Z,16576.00
2019-05-15T09:11:39.363Z,16544.00
2019-05-15T09:12:39.055Z,16704.00
2019-05-15T09:13:43.069Z,16736.00
2019-05-15T09:14:40.063Z,16864.00
2019-05-15T09:15:39.674Z,17184.00
2019-05-15T09:16:38.900Z,17056.00
2019-05-15T09:17:39.881Z,17024.00
2019-05-15T09:18:39.303Z,17344.00
2019-05-15T09:19:38.843Z,17120.00
2019-05-15T09:20:38.660Z,16832.00
2019-05-15T09:21:38.955Z,16640.00
2019-05-15T09:22:38.543Z,16640.00
2019-05-15T09:23:38.976Z,16768.00
2019-05-15T09:24:38.535Z,16704.00
2019-05-15T09:25:38.957Z,16640.00
2019-05-15T09:26:40.429Z,16896.00
2019-05-15T09:27:38.583Z,16960.00
2019-05-15T09:28:39.211Z,16832.00
2019-05-15T09:29:38.466Z,16992.00
2019-05-15T09:30:39.173Z,17024.00
2019-05-15T09:31:39.188Z,16992.00
2019-05-15T09:32:39.309Z,16896.00
2019-05-15T09:33:38.832Z,16992.00
2019-05-15T09:34:50.915Z,16896.00
2019-05-15T09:35:39.382Z,16960.00
2019-05-15T09:36:42.307Z,17088.00
2019-05-15T09:37:38.827Z,17056.00
2019-05-15T09:38:39.096Z,16960.00
2019-05-15T09:39:38.346Z,17024.00
2019-05-15T09:40:46.011Z,16832.00
2019-05-15T09:41:38.329Z,16832.00
2019-05-15T09:42:38.883Z,16832.00
2019-05-15T09:43:39.539Z,16864.00
2019-05-15T09:44:39.133Z,16960.00
2019-05-15T09:45:38.286Z,16960.00
2019-05-15T09:46:38.460Z,16864.00
2019-05-15T09:47:39.492Z,16736.00
2019-05-15T09:48:39.083Z,16832.00
2019-05-15T09:49:39.122Z,16960.00
2019-05-15T09:50:39.666Z,16992.00
2019-05-15T09:51:38.610Z,16992.00
2019-05-15T09:52:38.869Z,16928.00
2019-05-15T09:53:39.431Z,16928.00
2019-05-15T09:54:38.810Z,16928.00
2019-05-15T09:55:38.347Z,16992.00
2019-05-15T09:56:38.567Z,16960.00
2019-05-15T09:57:38.763Z,16768.00
2019-05-15T09:58:38.386Z,17024.00
2019-05-15T09:59:39.070Z,17088.00
2019-05-15T10:00:38.584Z,17120.00
2019-05-15T10:01:39.467Z,17312.00
2019-05-15T10:02:39.487Z,17216.00
2019-05-15T10:03:39.539Z,17216.00
2019-05-15T10:04:39.061Z,17184.00
2019-05-15T10:05:38.838Z,17088.00
2019-05-15T10:06:39.128Z,17088.00
2019-05-15T10:07:40.489Z,17184.00
2019-05-15T10:08:39.774Z,17184.00
2019-05-15T10:09:38.881Z,17024.00
2019-05-15T10:10:38.231Z,16960.00
2019-05-15T10:11:38.336Z,16864.00
2019-05-15T10:12:38.631Z,16896.00
2019-05-15T10:13:38.570Z,16960.00
2019-05-15T10:14:38.611Z,16704.00
2019-05-15T10:15:39.010Z,16768.00
2019-05-15T10:16:37.964Z,16640.00
2019-05-15T10:17:37.917Z,16704.00
2019-05-15T10:18:39.019Z,16608.00
2019-05-15T10:19:37.902Z,16480.00
2019-05-15T10:20:37.891Z,16608.00
2019-05-15T10:21:40.068Z,16576.00
2019-05-15T10:22:37.878Z,16576.00
2019-05-15T10:23:40.357Z,16672.00
2019-05-15T10:24:37.845Z,16768.00
2019-05-15T10:25:38.919Z,16672.00
2019-05-15T10:26:39.333Z,16768.00
2019-05-15T10:27:39.777Z,16704.00
2019-05-15T10:28:39.178Z,16800.00
2019-05-15T10:29:38.775Z,17024.00
2019-05-15T10:30:39.451Z,17056.00
2019-05-15T10:31:38.921Z,17088.00
2019-05-15T10:32:39.553Z,17248.00
2019-05-15T10:33:39.345Z,17376.00
2019-05-15T10:34:38.770Z,17056.00
2019-05-15T10:35:39.292Z,17056.00
2019-05-15T10:36:38.656Z,17024.00
2019-05-15T10:37:38.977Z,16928.00
2019-05-15T10:38:39.220Z,16768.00
2019-05-15T10:39:38.473Z,16832.00
2019-05-15T10:40:39.500Z,17120.00
2019-05-15T10:41:38.841Z,16928.00
2019-05-15T10:42:39.826Z,17024.00
2019-05-15T10:43:44.526Z,16960.00
2019-05-15T10:44:39.194Z,16832.00
2019-05-15T10:45:42.368Z,16736.00
2019-05-15T10:46:38.278Z,16896.00
2019-05-15T10:47:38.808Z,16896.00
2019-05-15T10:48:38.517Z,16768.00
2019-05-15T10:49:38.940Z,16736.00
2019-05-15T10:50:38.746Z,16640.00
2019-05-15T10:51:39.666Z,16864.00
2019-05-15T10:52:38.246Z,16896.00
2019-05-15T10:53:39.163Z,16640.00
2019-05-15T10:54:38.154Z,16864.00
2019-05-15T10:55:39.503Z,17088.00
2019-05-15T10:56:38.522Z,16960.00
2019-05-15T10:57:43.380Z,16800.00
2019-05-15T10:58:39.285Z,17152.00
2019-05-15T10:59:37.460Z,17344.00
2019-05-15T11:00:37.467Z,17408.00
2019-05-15T11:01:38.636Z,17440.00
2019-05-15T11:02:39.496Z,17664.00
2019-05-15T11:03:39.699Z,17632.00
2019-05-15T11:04:39.301Z,17408.00
2019-05-15T11:05:44.870Z,17312.00
2019-05-15T11:06:38.378Z,17408.00
2019-05-15T11:07:39.320Z,17728.00
2019-05-15T11:09:48.909Z,14656.00
2019-05-15T11:10:49.311Z,17728.00
2019-05-15T11:11:51.136Z,17632.00
2019-05-15T11:12:47.670Z,17984.00
2019-05-15T11:13:47.507Z,17952.00
2019-05-15T11:14:47.507Z,18368.00
2019-05-15T11:15:49.242Z,18464.00
2019-05-15T11:16:48.613Z,18592.00
2019-05-15T11:17:49.168Z,19072.00
2019-05-15T11:18:48.171Z,19040.00
2019-05-15T11:19:49.938Z,19200.00
2019-05-15T11:20:48.691Z,19424.00
2019-05-15T11:21:48.529Z,19616.00
2019-05-15T11:22:50.000Z,19840.00
2019-05-15T11:23:49.404Z,20032.00
2019-05-15T11:24:50.835Z,20096.00
2019-05-15T11:25:48.946Z,8908.00
2019-05-15T11:26:49.980Z,9928.00
2019-05-15T11:27:48.455Z,14068.00
2019-05-15T11:28:49.788Z,19584.00
2019-05-15T11:29:47.799Z,19488.00
2019-05-15T11:30:48.969Z,19200.00
2019-05-15T11:31:48.750Z,19232.00
2019-05-15T11:32:48.703Z,19808.00
2019-05-15T11:33:49.289Z,20160.00
2019-05-15T11:34:49.273Z,20288.00
2019-05-15T11:35:58.145Z,19488.00
2019-05-15T11:36:48.275Z,21152.00
2019-05-15T11:37:56.060Z,12656.00
2019-05-15T11:38:48.568Z,21216.00
2019-05-15T11:39:47.526Z,12384.00
2019-05-15T11:40:47.219Z,9816.00
2019-05-15T11:41:49.300Z,20864.00
2019-05-15T11:42:48.721Z,21120.00
2019-05-15T11:43:49.595Z,21280.00
2019-05-15T11:44:48.408Z,21280.00
2019-05-15T11:45:48.199Z,21376.00
2019-05-15T11:46:49.395Z,21056.00
2019-05-15T11:47:48.336Z,21120.00
2019-05-15T11:48:49.691Z,21184.00
2019-05-15T11:49:47.126Z,21408.00
2019-05-15T11:50:47.097Z,21152.00
2019-05-15T11:51:49.224Z,21312.00
2019-05-15T11:52:47.078Z,21280.00
2019-05-15T11:53:49.228Z,21376.00
2019-05-15T11:54:49.360Z,13204.00
2019-05-15T11:55:48.017Z,10012.00
2019-05-15T11:56:49.056Z,20288.00
2019-05-15T11:57:50.411Z,20576.00
2019-05-15T11:58:47.020Z,14784.00
2019-05-15T11:59:54.869Z,14524.00
2019-05-15T12:00:49.080Z,21824.00
2019-05-15T12:01:48.863Z,11512.00
2019-05-15T12:02:46.973Z,22304.00
2019-05-15T12:03:46.979Z,22464.00
2019-05-15T12:04:46.940Z,22688.00
2019-05-15T12:05:46.933Z,22592.00
2019-05-15T12:06:58.741Z,22720.00
2019-05-15T12:07:47.754Z,23232.00
2019-05-15T12:08:46.917Z,23264.00
2019-05-15T12:09:46.877Z,12432.00
2019-05-15T12:10:46.871Z,23776.00
2019-05-15T12:11:46.864Z,12028.00
2019-05-15T12:12:49.504Z,23104.00
2019-05-15T12:13:46.857Z,12120.00
2019-05-15T12:14:49.500Z,10408.00
2019-05-15T12:15:48.442Z,11500.00
2019-05-15T12:17:02.264Z,10392.00
2019-05-15T12:17:48.478Z,11068.00
2019-05-15T12:18:48.376Z,22464.00
2019-05-15T12:19:54.904Z,22464.00
2019-05-15T12:20:48.681Z,22848.00
2019-05-15T12:21:48.850Z,23040.00
2019-05-15T12:22:48.478Z,18816.00